Time;durP1;ratioP1;P1;durP2;ratioP2;P2;SDS_P1;SDS_P2;PMS_P1;PMS_P2;Temp;Humidity;BMP_temperature;BMP_pressure;BME280_temperature;BME280_humidity;BME280_pressure;Samples;Min_cycle;Max_cycle;Signal;HPM_P1;HPM_P2
2023/04/24 00:00:14;;;;;;;18.90;16.88;;;;;;;8.06;100.00;99822.22;4956268;28;20037;-80
2023/04/24 00:02:40;;;;;;;19.90;16.20;;;;;;;8.04;100.00;99824.13;4992383;28;20450;-80
2023/04/24 00:05:06;;;;;;;18.88;16.35;;;;;;;8.09;100.00;99830.84;4931184;28;20045;-79
2023/04/24 00:07:32;;;;;;;19.35;15.77;;;;;;;8.08;100.00;99817.69;4941482;28;20058;-80
2023/04/24 00:09:57;;;;;;;18.88;16.88;;;;;;;8.11;100.00;99836.94;4915621;28;20462;-79
2023/04/24 00:12:23;;;;;;;18.98;16.90;;;;;;;8.13;100.00;99835.03;4931464;28;20045;-80
2023/04/24 00:14:48;;;;;;;20.77;16.35;;;;;;;8.08;100.00;99818.56;4902476;28;20029;-80
2023/04/24 00:17:14;;;;;;;19.02;16.83;;;;;;;8.18;100.00;99837.44;4933128;28;20030;-79
2023/04/24 00:19:39;;;;;;;18.02;15.50;;;;;;;8.20;100.00;99846.16;4940357;28;20022;-79
2023/04/24 00:22:05;;;;;;;20.45;16.70;;;;;;;8.21;100.00;99839.91;4908625;28;20037;-79
2023/04/24 00:24:30;;;;;;;21.23;16.52;;;;;;;8.21;100.00;99839.91;4913771;28;20037;-79
2023/04/24 00:26:56;;;;;;;19.75;16.42;;;;;;;8.21;100.00;99839.91;4971582;28;20034;-79
2023/04/24 00:29:21;;;;;;;18.20;15.88;;;;;;;8.21;100.00;99834.59;4931480;28;20119;-80
2023/04/24 00:31:46;;;;;;;18.33;15.90;;;;;;;8.18;100.00;99830.31;4955433;28;20101;-80
2023/04/24 00:34:12;;;;;;;17.85;16.05;;;;;;;8.20;100.00;99841.72;4975832;28;20734;-79
2023/04/24 00:36:37;;;;;;;17.65;15.68;;;;;;;8.16;100.00;99841.97;4990923;28;20903;-80
2023/04/24 00:39:03;;;;;;;17.77;15.88;;;;;;;8.12;100.00;99829.84;4953776;28;20030;-80
2023/04/24 00:41:30;;;;;;;20.70;16.85;;;;;;;8.11;100.00;99836.06;4953988;28;20630;-80
2023/04/24 00:43:55;;;;;;;19.10;16.00;;;;;;;8.07;100.00;99856.59;4956532;28;20141;-79
2023/04/24 00:46:21;;;;;;;21.25;17.42;;;;;;;7.96;100.00;99843.09;4910154;28;20214;-79
2023/04/24 00:48:46;;;;;;;19.55;17.48;;;;;;;7.83;100.00;99848.22;4897750;28;20120;-80
2023/04/24 00:51:12;;;;;;;21.77;17.70;;;;;;;7.82;100.00;99850.97;4920430;28;20030;-80
2023/04/24 00:53:37;;;;;;;25.00;19.50;;;;;;;7.76;100.00;99846.84;4923442;28;20502;-79
2023/04/24 00:56:04;;;;;;;22.80;18.52;;;;;;;7.69;100.00;99845.47;4970723;28;20079;-80
2023/04/24 00:58:31;;;;;;;23.08;19.40;;;;;;;7.71;100.00;99855.03;4960379;28;20095;-80
2023/04/24 01:00:57;;;;;;;21.83;18.75;;;;;;;7.70;100.00;99844.53;4974614;28;20026;-81
2023/04/24 01:03:26;;;;;;;23.13;19.50;;;;;;;7.66;100.00;99843.84;4923609;28;20375;-78
2023/04/24 01:05:52;;;;;;;20.95;18.67;;;;;;;7.70;100.00;99856.00;4979158;28;20030;-79
2023/04/24 01:08:19;;;;;;;25.95;20.50;;;;;;;7.71;100.00;99857.69;4935127;28;20063;-80
2023/04/24 01:10:45;;;;;;;24.55;19.50;;;;;;;7.70;100.00;99844.53;4930320;28;20030;-79
2023/04/24 01:13:11;;;;;;;23.90;19.85;;;;;;;7.75;100.00;99850.44;4918527;28;20052;-80
2023/04/24 01:15:36;;;;;;;27.65;21.58;;;;;;;7.74;100.00;99851.38;4900517;28;20273;-79
2023/04/24 01:18:03;;;;;;;32.42;23.15;;;;;;;7.72;100.00;99840.84;4910559;28;20127;-80
2023/04/24 01:20:29;;;;;;;28.38;23.40;;;;;;;7.69;100.00;99845.47;4897876;28;20379;-79
2023/04/24 01:22:56;;;;;;;28.30;23.15;;;;;;;7.62;100.00;99846.75;4898421;28;20037;-80
2023/04/24 01:25:22;;;;;;;29.48;24.25;;;;;;;7.60;100.00;99853.91;4920340;28;20131;-78
2023/04/24 01:27:47;;;;;;;28.73;23.20;;;;;;;7.55;100.00;99848.88;4914830;28;20048;-78
2023/04/24 01:30:13;;;;;;;32.30;25.13;;;;;;;7.55;100.00;99855.97;4913813;28;20079;-80
2023/04/24 01:32:40;;;;;;;30.10;24.67;;;;;;;7.55;100.00;99850.66;4922339;28;20055;-79
2023/04/24 01:35:06;;;;;;;29.63;24.58;;;;;;;7.53;100.00;99847.25;4958669;28;20046;-80
2023/04/24 01:37:33;;;;;;;34.00;25.30;;;;;;;7.44;100.00;99832.69;4920303;28;20212;-79
2023/04/24 01:39:58;;;;;;;32.58;25.60;;;;;;;7.51;100.00;99839.38;4973144;28;20025;-80
2023/04/24 01:42:24;;;;;;;33.90;25.77;;;;;;;7.52;100.00;99850.81;4935493;28;20525;-79
2023/04/24 01:44:51;;;;;;;33.70;26.67;;;;;;;7.51;100.00;99844.69;4940202;28;20046;-80
2023/04/24 01:47:16;;;;;;;32.38;25.77;;;;;;;7.42;100.00;99834.59;4932644;28;20536;-77
2023/04/24 01:49:42;;;;;;;31.20;27.00;;;;;;;7.49;100.00;99836.81;4923391;28;20054;-79
2023/04/24 01:52:07;;;;;;;32.97;27.20;;;;;;;7.54;100.00;99848.97;4945823;28;20130;-80
2023/04/24 01:54:33;;;;;;;33.35;26.02;;;;;;;7.55;100.00;99845.38;4974774;28;20487;-81
2023/04/24 01:57:02;;;;;;;30.13;26.25;;;;;;;7.56;100.00;99847.91;4943836;28;20080;-80
2023/04/24 01:59:28;;;;;;;32.25;26.05;;;;;;;7.55;100.00;99845.38;4936190;28;20047;-79
2023/04/24 02:01:54;;;;;;;33.42;27.23;;;;;;;7.56;100.00;99847.91;4919093;28;20029;-79
2023/04/24 02:04:19;;;;;;;30.67;26.17;;;;;;;7.54;100.00;99854.25;4955768;28;20627;-79
2023/04/24 02:06:45;;;;;;;32.83;27.63;;;;;;;7.49;100.00;99841.28;4937894;28;20061;-79
2023/04/24 02:09:10;;;;;;;35.50;28.45;;;;;;;7.50;100.00;99853.56;4964923;28;20061;-78
2023/04/24 02:11:36;;;;;;;34.70;29.02;;;;;;;7.49;100.00;99858.00;4944533;28;20028;-78
2023/04/24 02:14:01;;;;;;;34.33;27.30;;;;;;;7.46;100.00;99859.97;4903105;28;20129;-79
2023/04/24 02:16:31;;;;;;;32.55;26.90;;;;;;;7.45;100.00;99856.47;4898751;28;20116;-80
2023/04/24 02:18:57;;;;;;;33.17;26.92;;;;;;;7.46;100.00;99849.38;4909157;28;20021;-79
2023/04/24 02:21:22;;;;;;;30.98;26.10;;;;;;;7.48;100.00;99855.44;4944616;28;20054;-79
2023/04/24 02:23:48;;;;;;;33.83;26.67;;;;;;;7.52;100.00;99861.41;4915632;28;20058;-79
2023/04/24 02:26:13;;;;;;;28.52;25.42;;;;;;;7.49;100.00;99846.56;4963866;28;20039;-79
2023/04/24 02:28:38;;;;;;;33.53;26.33;;;;;;;7.55;100.00;99861.25;4933769;28;20052;-80
2023/04/24 02:31:05;;;;;;;36.20;27.45;;;;;;;7.56;100.00;99860.31;4910554;28;20028;-80
2023/04/24 02:33:30;;;;;;;30.02;25.00;;;;;;;7.56;100.00;99853.22;4909771;28;20388;-79
2023/04/24 02:35:56;;;;;;;29.23;25.00;;;;;;;7.63;100.00;99859.91;4902205;28;20052;-80
2023/04/24 02:38:21;;;;;;;29.35;25.38;;;;;;;7.65;100.00;99851.84;4973834;28;20028;-79
2023/04/24 02:40:46;;;;;;;29.63;25.05;;;;;;;7.69;100.00;99854.28;4937065;28;20070;-80
2023/04/24 02:43:12;;;;;;;29.23;25.40;;;;;;;7.66;100.00;99835.91;4920326;28;20108;-79
2023/04/24 02:45:38;;;;;;;28.65;24.17;;;;;;;7.72;100.00;99870.00;4972777;28;20030;-79
2023/04/24 02:48:03;;;;;;;29.70;24.83;;;;;;;7.73;100.00;99849.66;4892662;28;20644;-80
2023/04/24 02:50:29;;;;;;;29.23;25.33;;;;;;;7.71;100.00;99851.53;4933675;28;20033;-78
2023/04/24 02:52:54;;;;;;;29.77;24.77;;;;;;;7.71;100.00;99849.75;4917941;28;20541;-79
2023/04/24 02:55:19;;;;;;;25.88;23.13;;;;;;;7.69;100.00;99851.63;4906191;28;20366;-79
2023/04/24 02:57:45;;;;;;;25.70;22.90;;;;;;;7.69;100.00;99843.69;4947940;28;20036;-80
2023/04/24 03:00:11;;;;;;;27.42;23.50;;;;;;;7.72;100.00;99846.16;4906024;28;20036;-79
2023/04/24 03:02:37;;;;;;;24.38;21.88;;;;;;;7.72;100.00;99842.66;4912097;28;20032;-80
2023/04/24 03:05:03;;;;;;;23.88;21.27;;;;;;;7.74;100.00;99851.38;4898100;28;20039;-80
2023/04/24 03:07:28;;;;;;;28.13;22.75;;;;;;;7.72;100.00;99843.50;4914865;28;20040;-79
2023/04/24 03:09:54;;;;;;;25.48;20.92;;;;;;;7.72;100.00;99840.00;4920113;28;20026;-79
2023/04/24 03:12:19;;;;;;;24.25;21.40;;;;;;;7.75;100.00;99847.78;4915425;28;20118;-80
2023/04/24 03:14:44;;;;;;;25.40;21.80;;;;;;;7.70;100.00;99840.09;4928138;28;20055;-79
2023/04/24 03:17:10;;;;;;;23.58;21.08;;;;;;;7.71;100.00;99843.59;4887497;28;20032;-79
2023/04/24 03:19:35;;;;;;;25.60;19.90;;;;;;;7.70;100.00;99839.25;4901409;28;20066;-79
2023/04/24 03:22:02;;;;;;;23.60;19.52;;;;;;;7.69;100.00;99843.69;4932434;28;20091;-79
2023/04/24 03:24:28;;;;;;;21.45;19.10;;;;;;;7.69;100.00;99840.16;4901421;28;20179;-80
2023/04/24 03:26:53;;;;;;;24.80;19.90;;;;;;;7.68;100.00;99847.25;4896027;28;20043;-80
2023/04/24 03:29:19;;;;;;;24.20;19.67;;;;;;;7.68;100.00;99849.06;4895439;28;22037;-79
2023/04/24 03:31:44;;;;;;;21.15;18.80;;;;;;;7.66;100.00;99853.59;4943633;28;20050;-80
2023/04/24 03:34:10;;;;;;;21.70;19.48;;;;;;;7.63;100.00;99848.47;4982621;28;20030;-79
2023/04/24 03:36:35;;;;;;;23.17;19.50;;;;;;;7.67;100.00;99850.84;4959126;28;20055;-79
2023/04/24 03:39:01;;;;;;;23.58;18.98;;;;;;;7.61;100.00;99847.69;4914181;28;20037;-80
2023/04/24 03:41:26;;;;;;;22.40;19.35;;;;;;;7.69;100.00;99856.06;4903466;28;20029;-79
2023/04/24 03:43:51;;;;;;;21.77;18.95;;;;;;;7.67;100.00;99857.94;4877238;28;20211;-79
2023/04/24 03:46:17;;;;;;;20.90;18.27;;;;;;;7.67;100.00;99850.84;4875868;28;20040;-79
2023/04/24 03:48:42;;;;;;;20.23;18.02;;;;;;;7.66;100.00;99845.66;4886936;28;20130;-79
2023/04/24 03:51:07;;;;;;;20.35;16.98;;;;;;;7.65;100.00;99841.28;4916076;28;20568;-79
2023/04/24 03:53:32;;;;;;;20.00;16.95;;;;;;;7.64;100.00;99847.50;4920933;28;20356;-79
2023/04/24 03:55:58;;;;;;;18.85;16.60;;;;;;;7.62;100.00;99839.66;4904531;28;20228;-78
2023/04/24 03:58:23;;;;;;;20.63;17.77;;;;;;;7.64;100.00;99839.56;4926069;28;20127;-79
2023/04/24 04:00:49;;;;;;;20.17;17.67;;;;;;;7.67;100.00;99842.06;4928979;28;20129;-79
2023/04/24 04:03:15;;;;;;;19.95;17.15;;;;;;;7.66;100.00;99843.00;4938120;28;20655;-79
2023/04/24 04:05:40;;;;;;;20.10;17.98;;;;;;;7.58;100.00;99837.25;4950241;28;20174;-79
2023/04/24 04:08:06;;;;;;;18.45;16.55;;;;;;;7.60;100.00;99854.75;4967305;28;21383;-79
2023/04/24 04:10:31;;;;;;;19.92;17.83;;;;;;;7.53;100.00;99847.25;4912797;28;20048;-79
2023/04/24 04:12:56;;;;;;;19.77;17.30;;;;;;;7.45;100.00;99848.53;4935676;28;20028;-78
2023/04/24 04:15:22;;;;;;;19.80;17.67;;;;;;;7.34;100.00;99844.72;4913743;28;20108;-78
2023/04/24 04:17:47;;;;;;;19.13;17.23;;;;;;;7.28;100.00;99840.63;4922697;28;20834;-79
2023/04/24 04:20:13;;;;;;;19.80;17.70;;;;;;;7.24;100.00;99854.97;4976864;28;20103;-80
2023/04/24 04:22:39;;;;;;;18.55;16.63;;;;;;;7.19;100.00;99854.31;4913981;28;20048;-79
2023/04/24 04:25:05;;;;;;;19.45;17.33;;;;;;;7.14;100.00;99853.72;4937090;28;20093;-79
2023/04/24 04:27:31;;;;;;;18.40;16.60;;;;;;;7.12;100.00;99852.97;4950588;28;20186;-78
2023/04/24 04:30:04;;;;;;;19.05;17.13;;;;;;;7.05;100.00;99852.41;4920284;28;20098;-79
2023/04/24 04:32:33;;;;;;;18.92;17.02;;;;;;;7.04;100.00;99863.09;4953413;28;20034;-79
2023/04/24 04:35:03;;;;;;;18.98;16.80;;;;;;;6.99;100.00;99861.53;4951611;28;20050;-78
2023/04/24 04:37:34;;;;;;;18.70;16.77;;;;;;;6.97;100.00;99863.38;4913397;28;20516;-79
2023/04/24 04:40:01;;;;;;;19.48;17.35;;;;;;;6.94;100.00;99852.97;4949897;28;20030;-78
2023/04/24 04:42:30;;;;;;;18.88;16.80;;;;;;;6.92;100.00;99857.47;4943175;28;20092;-79
2023/04/24 04:44:57;;;;;;;18.77;16.95;;;;;;;6.91;100.00;99852.28;4913552;28;20048;-79
2023/04/24 04:47:23;;;;;;;19.00;16.60;;;;;;;6.91;100.00;99855.78;4902048;28;20033;-79
2023/04/24 04:49:48;;;;;;;21.17;18.55;;;;;;;6.88;100.00;99855.94;4945880;28;20074;-80
2023/04/24 04:52:14;;;;;;;20.10;17.83;;;;;;;6.85;100.00;99844.66;4951062;28;20514;-79
2023/04/24 04:54:39;;;;;;;21.35;18.25;;;;;;;6.90;100.00;99855.88;4917623;28;20086;-79
2023/04/24 04:57:05;;;;;;;17.60;15.85;;;;;;;6.86;100.00;99849.03;4946191;28;20119;-79
2023/04/24 04:59:31;;;;;;;20.70;17.10;;;;;;;6.82;100.00;99855.41;4927151;28;20243;-79
2023/04/24 05:01:56;;;;;;;19.70;17.08;;;;;;;6.84;100.00;99862.31;4964525;28;20033;-79
2023/04/24 05:04:22;;;;;;;17.95;16.20;;;;;;;6.86;100.00;99862.25;4957706;28;20114;-80
2023/04/24 05:06:47;;;;;;;18.35;16.45;;;;;;;6.85;100.00;99857.88;4928524;28;20528;-78
2023/04/24 05:09:12;;;;;;;19.45;17.38;;;;;;;6.86;100.00;99868.41;4916175;28;20716;-79
2023/04/24 05:11:38;;;;;;;19.48;17.48;;;;;;;6.88;100.00;99865.66;4964815;28;20106;-78
2023/04/24 05:14:03;;;;;;;18.98;17.08;;;;;;;6.86;100.00;99859.59;4950121;28;20042;-79
2023/04/24 05:16:29;;;;;;;20.60;17.75;;;;;;;6.92;100.00;99868.06;4926829;28;20045;-80
2023/04/24 05:18:54;;;;;;;18.52;16.58;;;;;;;6.89;100.00;99872.66;4907550;28;20029;-80
2023/04/24 05:21:20;;;;;;;19.77;16.17;;;;;;;6.89;100.00;99876.16;4909759;28;20052;-80
2023/04/24 05:23:45;;;;;;;18.45;15.65;;;;;;;6.90;100.00;99880.53;4902930;28;20505;-79
2023/04/24 05:26:10;;;;;;;15.73;14.13;;;;;;;6.90;100.00;99880.53;4922951;28;20040;-79
2023/04/24 05:28:36;;;;;;;14.50;13.00;;;;;;;6.87;100.00;99875.38;4910610;28;20033;-80
2023/04/24 05:31:02;;;;;;;12.00;10.75;;;;;;;6.84;100.00;99886.13;4928029;28;20049;-79
2023/04/24 05:33:27;;;;;;;11.32;9.40;;;;;;;6.86;100.00;99886.06;4915616;28;20040;-80
2023/04/24 05:35:53;;;;;;;12.23;9.55;;;;;;;6.80;100.00;99889.84;4892305;28;20040;-80
2023/04/24 05:38:19;;;;;;;9.63;8.63;;;;;;;6.83;100.00;99910.88;4963352;28;20455;-79
2023/04/24 05:40:45;;;;;;;9.20;8.23;;;;;;;6.83;100.00;99899.44;4979158;28;20041;-80
2023/04/24 05:43:10;;;;;;;9.25;7.72;;;;;;;6.82;100.00;99900.38;4941723;28;20167;-80
2023/04/24 05:45:35;;;;;;;8.88;7.22;;;;;;;6.73;100.00;99893.75;4937221;28;20041;-80
2023/04/24 05:48:02;;;;;;;7.15;5.97;;;;;;;6.76;100.00;99906.81;4952659;28;20130;-80
2023/04/24 05:50:27;;;;;;;7.28;5.82;;;;;;;6.75;100.00;99913.03;4957826;28;20142;-81
2023/04/24 05:52:53;;;;;;;9.65;5.25;;;;;;;6.63;100.00;99888.06;4942730;28;20161;-81
2023/04/24 05:55:19;;;;;;;5.60;4.95;;;;;;;6.64;100.00;99892.41;4903903;28;20693;-81
2023/04/24 05:57:45;;;;;;;5.95;5.00;;;;;;;6.61;100.00;99907.59;4935829;28;20048;-82
2023/04/24 06:00:11;;;;;;;6.60;5.32;;;;;;;6.58;100.00;99899.78;4913148;28;20024;-81
2023/04/24 06:02:38;;;;;;;6.18;5.50;;;;;;;6.49;100.00;99907.25;4905953;28;20033;-81
2023/04/24 06:05:04;;;;;;;6.43;5.30;;;;;;;6.49;100.00;99917.81;4978525;28;20038;-82
2023/04/24 06:07:31;;;;;;;7.07;5.35;;;;;;;6.48;100.00;99910.81;4915541;28;20047;-81
2023/04/24 06:09:56;;;;;;;6.43;5.28;;;;;;;6.47;100.00;99927.59;4923156;28;20018;-80
2023/04/24 06:12:22;;;;;;;8.00;5.80;;;;;;;6.34;100.00;99894.78;4901768;28;20666;-80
2023/04/24 06:14:47;;;;;;;7.03;6.32;;;;;;;6.46;100.00;99920.59;4939729;28;20036;-80
2023/04/24 06:17:13;;;;;;;8.65;7.00;;;;;;;6.40;100.00;99918.28;4934938;28;20032;-81
2023/04/24 06:19:38;;;;;;;8.02;6.93;;;;;;;6.49;100.00;99948.69;4909696;28;20135;-83
2023/04/24 06:22:04;;;;;;;8.30;7.32;;;;;;;6.52;100.00;99951.19;4968455;28;20370;-82
2023/04/24 06:24:30;;;;;;;11.98;7.32;;;;;;;6.51;100.00;99951.25;4916386;28;20034;-81
2023/04/24 06:26:56;;;;;;;11.38;8.23;;;;;;;6.54;100.00;99964.31;4911355;28;20026;-81
2023/04/24 06:29:22;;;;;;;11.05;8.88;;;;;;;6.46;100.00;99959.41;4926690;28;20103;-82
2023/04/24 06:31:47;;;;;;;11.48;10.30;;;;;;;6.58;100.00;99968.53;4902671;28;20099;-82
2023/04/24 06:34:13;;;;;;;14.23;10.38;;;;;;;6.58;100.00;99979.13;4919216;28;20049;-83
2023/04/24 06:36:38;;;;;;;14.15;11.98;;;;;;;6.59;100.00;99984.31;4908405;28;20038;-82
2023/04/24 06:39:03;;;;;;;17.00;13.32;;;;;;;6.61;100.00;99986.91;4937904;28;20472;-81
2023/04/24 06:41:29;;;;;;;15.98;14.35;;;;;;;6.58;100.00;99990.53;4932355;28;20058;-81
2023/04/24 06:43:55;;;;;;;20.63;15.05;;;;;;;6.64;100.00;100002.59;4876177;28;20035;-81
2023/04/24 06:46:25;;;;;;;19.65;15.75;;;;;;;6.56;100.00;99995.03;4910926;28;20191;-82
2023/04/24 06:48:55;;;;;;;21.20;15.48;;;;;;;6.63;100.00;100017.63;4909400;28;20032;-82
2023/04/24 06:51:22;;;;;;;19.73;16.75;;;;;;;6.58;100.00;100018.78;4884241;28;20219;-83
2023/04/24 06:53:47;;;;;;;23.52;18.40;;;;;;;6.64;100.00;100032.53;4880036;28;20067;-81
2023/04/24 06:56:12;;;;;;;23.88;18.00;;;;;;;6.59;100.00;100033.69;4900679;28;20118;-82
2023/04/24 06:58:38;;;;;;;21.60;18.92;;;;;;;6.58;100.00;100048.72;4905412;28;20092;-84
2023/04/24 07:01:03;;;;;;;22.13;18.10;;;;;;;6.64;100.00;100050.19;4911414;28;20455;-83
2023/04/24 07:03:29;;;;;;;25.10;19.15;;;;;;;6.60;100.00;100056.56;4877387;28;20029;-82
2023/04/24 07:05:54;;;;;;;23.92;19.52;;;;;;;6.54;100.00;100051.56;4894020;28;20037;-82
2023/04/24 07:08:21;;;;;;;31.05;20.63;;;;;;;6.60;100.00;100077.72;4894042;28;20352;-82
2023/04/24 07:10:47;;;;;;;27.48;21.17;;;;;;;6.61;100.00;100082.09;4878182;28;20041;-84
2023/04/24 07:13:12;;;;;;;33.50;22.85;;;;;;;6.60;100.00;100083.00;4873960;28;21160;-83
2023/04/24 07:15:38;;;;;;;30.20;22.40;;;;;;;6.52;100.00;100087.78;4868536;28;20125;-82
2023/04/24 07:18:03;;;;;;;35.05;24.05;;;;;;;6.57;100.00;100118.41;4886558;28;20029;-82
2023/04/24 07:20:29;;;;;;;31.38;22.95;;;;;;;6.42;100.00;100095.28;4902462;28;20036;-84
2023/04/24 07:22:54;;;;;;;29.92;22.83;;;;;;;6.56;100.00;100131.66;4876996;28;20032;-84
2023/04/24 07:25:19;;;;;;;29.00;22.55;;;;;;;6.55;100.00;100135.25;4879350;28;20722;-81
2023/04/24 07:27:45;;;;;;;32.78;23.58;;;;;;;6.55;100.00;100137.88;4904231;28;20068;-83
2023/04/24 07:30:11;;;;;;;31.30;23.55;;;;;;;6.52;100.00;100132.72;4874269;28;20025;-84
2023/04/24 07:32:36;;;;;;;32.42;24.02;;;;;;;6.57;100.00;100157.19;4867422;28;20052;-84
2023/04/24 07:35:01;;;;;;;37.50;23.75;;;;;;;6.56;100.00;100163.38;4893124;28;20072;-82
2023/04/24 07:37:28;;;;;;;39.53;24.90;;;;;;;6.60;100.00;100163.19;4900081;28;20028;-82
2023/04/24 07:39:53;;;;;;;40.80;25.35;;;;;;;6.61;100.00;100172.84;4914207;28;20045;-83
2023/04/24 07:42:18;;;;;;;40.35;26.25;;;;;;;6.69;100.00;100181.28;4973314;28;20068;-83
2023/04/24 07:44:45;;;;;;;35.22;24.77;;;;;;;6.66;100.00;100185.88;4909125;28;20159;-85
2023/04/24 07:47:11;;;;;;;32.88;22.52;;;;;;;6.61;100.00;100190.50;4889517;28;20043;-83
2023/04/24 07:49:36;;;;;;;29.15;19.15;;;;;;;6.60;100.00;100212.56;4972352;28;20025;-81
2023/04/24 07:52:02;;;;;;;31.80;19.30;;;;;;;6.56;100.00;100219.78;4948965;28;20099;-83
2023/04/24 07:54:28;;;;;;;34.80;18.65;;;;;;;6.58;100.00;100225.00;4894657;28;20036;-80
2023/04/24 07:56:53;;;;;;;28.00;17.13;;;;;;;6.49;100.00;100221.00;4918311;28;20064;-82
2023/04/24 07:59:19;;;;;;;32.45;17.30;;;;;;;6.52;100.00;100239.38;4927747;28;20141;-81
2023/04/24 08:01:44;;;;;;;24.05;14.98;;;;;;;6.57;100.00;100239.16;4906842;28;20360;-84
2023/04/24 08:04:09;;;;;;;25.88;14.05;;;;;;;6.52;100.00;100235.84;4942702;28;20037;-83
2023/04/24 08:06:35;;;;;;;25.20;14.82;;;;;;;6.53;100.00;100246.38;4929564;28;20036;-83
2023/04/24 08:09:01;;;;;;;25.63;14.93;;;;;;;6.61;100.00;100248.69;4889548;28;20528;-82
2023/04/24 08:11:27;;;;;;;29.02;16.00;;;;;;;6.61;100.00;100264.53;4970336;28;20119;-82
2023/04/24 08:13:52;;;;;;;31.65;15.13;;;;;;;6.58;100.00;100260.25;4889832;28;20185;-84
2023/04/24 08:16:18;;;;;;;26.42;15.15;;;;;;;6.58;100.00;100280.53;4955951;28;20032;-82
2023/04/24 08:18:43;;;;;;;30.83;16.17;;;;;;;6.59;100.00;100271.66;4902323;28;20029;-83
2023/04/24 08:21:09;;;;;;;35.05;17.27;;;;;;;6.63;100.00;100267.97;4897078;28;20474;-83
2023/04/24 08:23:34;;;;;;;33.67;18.08;;;;;;;6.61;100.00;100275.97;4904672;28;20042;-83
2023/04/24 08:25:59;;;;;;;34.50;18.77;;;;;;;6.69;100.00;100295.03;4918492;28;20166;-83
2023/04/24 08:28:25;;;;;;;31.27;18.98;;;;;;;6.65;100.00;100289.94;4910224;28;20527;-84
2023/04/24 08:30:54;;;;;;;34.55;18.95;;;;;;;6.72;100.00;100296.66;4951533;28;20092;-83
2023/04/24 08:33:23;;;;;;;33.40;19.80;;;;;;;6.75;100.00;100312.41;4908628;28;20049;-84
2023/04/24 08:35:48;;;;;;;29.98;16.73;;;;;;;6.78;100.00;100312.28;4913184;28;20813;-82
2023/04/24 08:38:13;;;;;;;31.40;17.27;;;;;;;6.85;100.00;100323.41;4933704;28;20129;-83
2023/04/24 08:40:39;;;;;;;30.20;17.58;;;;;;;6.80;100.00;100307.75;4921398;28;20052;-84
2023/04/24 08:43:05;;;;;;;25.83;16.60;;;;;;;6.99;100.00;100315.75;4898395;28;20075;-84
2023/04/24 08:45:32;;;;;;;32.83;14.98;;;;;;;6.96;100.00;100316.75;4929455;28;20624;-83
2023/04/24 08:47:58;;;;;;;29.23;13.60;;;;;;;6.93;100.00;100310.72;4934337;28;20037;-83
2023/04/24 08:50:24;;;;;;;30.95;13.90;;;;;;;7.01;100.00;100332.41;4972927;28;20403;-85
2023/04/24 08:52:53;;;;;;;30.27;14.00;;;;;;;7.09;100.00;100338.22;4903118;28;20493;-85
2023/04/24 08:55:20;;;;;;;28.38;14.13;;;;;;;7.13;100.00;100353.03;4896976;28;20036;-85
2023/04/24 08:57:49;;;;;;;30.95;13.85;;;;;;;7.16;100.00;100347.63;4912000;28;20446;-85
2023/04/24 09:00:15;;;;;;;24.63;12.93;;;;;;;7.31;100.00;100353.13;4909278;28;20177;-85
2023/04/24 09:02:46;;;;;;;27.58;12.85;;;;;;;7.36;100.00;100349.38;4921712;28;20036;-84
2023/04/24 09:05:13;;;;;;;28.60;12.02;;;;;;;7.61;100.00;100350.91;4909206;28;20112;-84
2023/04/24 09:07:42;;;;;;;26.20;10.65;;;;;;;7.74;100.00;100363.50;4915836;28;20042;-83
2023/04/24 09:10:08;;;;;;;18.75;9.23;;;;;;;7.53;100.00;100382.16;4920425;28;20041;-83
2023/04/24 09:12:34;;;;;;;19.20;8.93;;;;;;;7.28;100.00;100377.97;4917121;28;20043;-84
2023/04/24 09:15:03;;;;;;;18.98;8.13;;;;;;;7.05;100.00;100370.19;4947500;28;20048;-85
2023/04/24 09:17:30;;;;;;;17.17;8.80;;;;;;;6.99;100.00;100387.19;4936185;28;20038;-86
2023/04/24 09:19:56;;;;;;;15.27;6.50;;;;;;;6.82;100.00;100390.56;4937124;28;20022;-83
2023/04/24 09:22:21;;;;;;;19.75;7.07;;;;;;;6.56;100.00;100369.63;4938099;28;20049;-85
2023/04/24 09:24:47;;;;;;;18.73;6.90;;;;;;;6.60;100.00;100389.72;4913047;28;20391;-85
2023/04/24 09:27:14;;;;;;;14.73;5.63;;;;;;;6.61;100.00;100402.91;4933767;28;20036;-84
2023/04/24 09:29:54;;;;;;;18.63;7.25;;;;;;;6.67;100.00;100421.16;4916534;28;20050;-84
2023/04/24 09:32:21;;;;;;;12.70;6.18;;;;;;;6.89;100.00;100426.41;4916472;28;20045;-83
2023/04/24 09:34:47;;;;;;;16.33;6.72;;;;;;;6.95;100.00;100423.50;4896444;28;20513;-85
2023/04/24 09:37:27;;;;;;;15.63;6.78;;;;;;;7.02;100.00;100423.22;4896920;28;20032;-85
2023/04/24 09:40:16;;;;;;;13.48;6.75;;;;;;;6.99;100.00;100430.38;4929467;28;20080;-85
2023/04/24 09:42:58;;;;;;;17.50;7.43;;;;;;;6.98;100.00;100448.97;4896778;28;20113;-86
2023/04/24 09:45:42;;;;;;;19.23;6.63;;;;;;;7.01;100.00;100446.19;4908399;28;20028;-85
2023/04/24 09:48:10;;;;;;;15.35;6.30;;;;;;;7.08;100.00;100457.38;4953666;28;20565;-83
2023/04/24 09:50:35;;;;;;;20.08;6.78;;;;;;;7.01;100.00;100462.06;4917799;28;20028;-85
2023/04/24 09:53:03;;;;;;;13.52;6.07;;;;;;;6.87;100.00;100456.50;4899304;28;20386;-85
2023/04/24 09:55:29;;;;;;;10.27;4.85;;;;;;;6.95;100.00;100471.13;4941158;28;20131;-85
2023/04/24 09:57:56;;;;;;;13.93;5.45;;;;;;;7.05;100.00;100470.75;4899347;28;20597;-84
2023/04/24 10:00:23;;;;;;;10.25;4.63;;;;;;;7.23;100.00;100475.25;4941929;28;20040;-85
2023/04/24 10:02:56;;;;;;;12.77;4.70;;;;;;;7.43;100.00;100483.19;4965159;28;20098;-84
2023/04/24 10:05:27;;;;;;;10.70;4.53;;;;;;;7.73;100.00;100480.09;4964697;28;20033;-85
2023/04/24 10:07:56;;;;;;;12.32;4.53;;;;;;;8.07;100.00;100478.56;4947253;28;20038;-85
2023/04/24 10:10:22;;;;;;;11.18;4.00;;;;;;;8.50;100.00;100485.41;4967096;28;20063;-84
2023/04/24 10:12:48;;;;;;;10.23;4.00;;;;;;;9.10;100.00;100479.81;4921703;28;20555;-84
2023/04/24 10:15:20;;;;;;;14.43;4.25;;;;;;;9.22;100.00;100485.34;4948552;28;20495;-84
2023/04/24 10:17:51;;;;;;;8.48;4.28;;;;;;;9.07;100.00;100467.56;4922445;28;20055;-84
2023/04/24 10:20:18;;;;;;;10.50;3.90;;;;;;;9.35;100.00;100493.56;4916980;28;20034;-84
2023/04/24 10:22:49;;;;;;;8.85;3.45;;;;;;;9.38;100.00;100490.75;4897004;28;20242;-85
2023/04/24 10:25:16;;;;;;;9.25;3.47;;;;;;;9.27;100.00;100495.75;4894811;28;20044;-85
2023/04/24 10:27:41;;;;;;;6.43;3.00;;;;;;;9.00;100.00;100500.66;4894079;28;20107;-85
2023/04/24 10:30:07;;;;;;;6.85;3.53;;;;;;;8.77;100.00;100490.31;4964692;28;20112;-84
2023/04/24 10:32:33;;;;;;;7.28;3.30;;;;;;;8.47;100.00;100491.72;4920495;28;20034;-84
2023/04/24 10:34:58;;;;;;;8.45;3.63;;;;;;;8.34;100.00;100503.81;4888429;28;20642;-83
2023/04/24 10:37:26;;;;;;;6.50;3.38;;;;;;;8.18;100.00;100497.50;4919364;28;20116;-84
2023/04/24 10:39:54;;;;;;;8.63;3.47;;;;;;;8.07;100.00;100500.66;4927174;28;20034;-83
2023/04/24 10:42:20;;;;;;;9.20;3.83;;;;;;;8.02;100.00;100509.72;4911495;28;20416;-84
2023/04/24 10:44:47;;;;;;;11.38;3.92;;;;;;;7.89;100.00;100512.06;4892896;28;20083;-84
2023/04/24 10:47:16;;;;;;;7.90;3.60;;;;;;;7.86;100.00;100523.69;4904103;28;20059;-85
2023/04/24 10:49:42;;;;;;;7.00;3.30;;;;;;;7.77;100.00;100529.38;4890074;28;20035;-84
2023/04/24 10:52:12;;;;;;;8.68;3.55;;;;;;;7.74;100.00;100533.03;4915417;28;20115;-85
2023/04/24 10:54:40;;;;;;;5.97;3.20;;;;;;;7.81;100.00;100535.41;4962873;28;20087;-84
2023/04/24 10:57:17;;;;;;;7.50;2.75;;;;;;;8.06;100.00;100535.16;4932309;28;20036;-82
2023/04/24 10:59:43;;;;;;;4.95;2.75;;;;;;;8.57;100.00;100537.25;4886895;28;20099;-83
2023/04/24 11:02:09;;;;;;;5.97;2.22;;;;;;;8.71;100.00;100544.53;4910199;28;20688;-84
2023/04/24 11:04:37;;;;;;;5.60;2.10;;;;;;;8.66;100.00;100535.94;4920790;28;20033;-84
2023/04/24 11:07:03;;;;;;;5.93;2.13;;;;;;;8.76;100.00;100531.91;4898928;28;20018;-83
2023/04/24 11:09:32;;;;;;;4.03;2.13;;;;;;;8.88;100.00;100544.59;4963708;28;20051;-82
2023/04/24 11:12:06;;;;;;;7.13;2.45;;;;;;;9.12;100.00;100541.66;4946712;28;20026;-84